createdAt,value
2023-04-30T00:01:02.076Z,96187
2023-04-30T00:02:02.087Z,96188
2023-04-30T00:03:02.177Z,96185
2023-04-30T00:04:02.090Z,96186
2023-04-30T00:05:02.041Z,96188
2023-04-30T00:06:02.075Z,96188
2023-04-30T00:07:02.096Z,96189
2023-04-30T00:08:02.042Z,96187
2023-04-30T00:09:02.078Z,96187
2023-04-30T00:10:02.070Z,96188
2023-04-30T00:11:02.080Z,96184
2023-04-30T00:12:02.090Z,96183
2023-04-30T00:13:02.085Z,96183
2023-04-30T00:14:02.092Z,96184
2023-04-30T00:15:02.089Z,96182
2023-04-30T00:16:02.176Z,96182
2023-04-30T00:17:02.104Z,96184
2023-04-30T00:18:02.144Z,96181
2023-04-30T00:19:02.114Z,96183
2023-04-30T00:20:02.138Z,96181
2023-04-30T00:21:02.071Z,96181
2023-04-30T00:22:02.131Z,96183
2023-04-30T00:23:02.140Z,96184
2023-04-30T00:25:02.157Z,96173
2023-04-30T00:26:02.131Z,96174
2023-04-30T00:27:02.114Z,96174
2023-04-30T00:28:02.093Z,96174
2023-04-30T00:29:02.118Z,96177
2023-04-30T00:30:02.111Z,96178
2023-04-30T00:31:02.154Z,96180
2023-04-30T00:32:02.205Z,96176
2023-04-30T00:33:02.276Z,96180
2023-04-30T00:34:02.111Z,96176
2023-04-30T00:35:02.112Z,96171
2023-04-30T00:38:02.127Z,96170
2023-04-30T00:39:02.137Z,96172
2023-04-30T00:40:02.196Z,96171
2023-04-30T00:42:02.176Z,96176
2023-04-30T00:43:02.154Z,96175
2023-04-30T00:46:02.133Z,96171
2023-04-30T00:49:02.199Z,96169
2023-04-30T00:50:02.239Z,96165
2023-04-30T00:51:02.145Z,96165
2023-04-30T00:52:02.173Z,96163
2023-04-30T00:53:02.174Z,96163
2023-04-30T00:54:02.168Z,96166
2023-04-30T00:55:02.187Z,96166
2023-04-30T00:57:02.230Z,96163
2023-04-30T00:58:02.242Z,96170
2023-04-30T00:59:02.202Z,96166
2023-04-30T01:00:02.184Z,96166
2023-04-30T01:01:02.315Z,96168
2023-04-30T01:02:02.226Z,96170
2023-04-30T01:04:02.202Z,96170
2023-04-30T01:05:02.166Z,96166
2023-04-30T01:06:02.271Z,96166
2023-04-30T01:07:02.243Z,96164
2023-04-30T01:08:02.206Z,96164
2023-04-30T01:09:02.192Z,96161
2023-04-30T01:10:02.198Z,96163
2023-04-30T01:11:02.195Z,96163
2023-04-30T01:12:02.228Z,96160
2023-04-30T01:13:02.214Z,96162
2023-04-30T01:14:02.234Z,96158
2023-04-30T01:15:02.251Z,96161
2023-04-30T01:16:02.255Z,96158
2023-04-30T01:17:02.242Z,96157
2023-04-30T01:18:02.302Z,96157
2023-04-30T01:19:02.278Z,96157
2023-04-30T01:20:02.232Z,96157
2023-04-30T01:21:02.217Z,96155
2023-04-30T01:22:02.261Z,96156
2023-04-30T01:23:02.253Z,96153
2023-04-30T01:24:02.249Z,96152
2023-04-30T01:25:02.259Z,96154
2023-04-30T01:28:02.278Z,96154
2023-04-30T01:29:02.297Z,96156
2023-04-30T01:30:02.341Z,96154
2023-04-30T01:31:02.269Z,96154
2023-04-30T01:32:02.290Z,96158
2023-04-30T01:33:02.370Z,96154
2023-04-30T01:35:03.381Z,96155
2023-04-30T01:36:02.310Z,96156
2023-04-30T01:37:02.317Z,96153
2023-04-30T01:38:02.322Z,96154
2023-04-30T01:39:02.293Z,96156
2023-04-30T01:40:02.335Z,96156
2023-04-30T01:41:02.280Z,96154
2023-04-30T01:42:02.330Z,96154
2023-04-30T01:43:02.301Z,96153
2023-04-30T01:45:02.356Z,96156
2023-04-30T01:46:02.355Z,96158
2023-04-30T01:47:02.312Z,96156
2023-04-30T01:48:02.396Z,96157
2023-04-30T01:50:02.354Z,96156
2023-04-30T01:51:02.374Z,96156
2023-04-30T01:52:02.313Z,96156
2023-04-30T01:53:02.351Z,96151
2023-04-30T01:54:02.340Z,96151
2023-04-30T01:55:02.352Z,96149
2023-04-30T01:57:02.341Z,96149
2023-04-30T01:58:02.373Z,96146
2023-04-30T01:59:02.363Z,96149
2023-04-30T02:00:02.357Z,96146
2023-04-30T02:01:02.411Z,96148
2023-04-30T02:02:02.413Z,96148
2023-04-30T02:03:02.464Z,96149
2023-04-30T02:04:02.461Z,96148
2023-04-30T02:05:02.332Z,96148
2023-04-30T02:06:02.440Z,96145
2023-04-30T02:07:02.395Z,96143
2023-04-30T02:08:02.396Z,96146
2023-04-30T02:09:02.449Z,96145
2023-04-30T02:10:02.408Z,96145
2023-04-30T02:11:02.420Z,96143
2023-04-30T02:13:02.397Z,96140
2023-04-30T02:14:02.408Z,96142
2023-04-30T02:15:02.370Z,96143
2023-04-30T02:16:02.415Z,96143
2023-04-30T02:17:02.362Z,96144
2023-04-30T02:18:02.399Z,96137
2023-04-30T02:19:02.429Z,96142
2023-04-30T02:20:02.445Z,96140
2023-04-30T02:21:02.429Z,96139
2023-04-30T02:22:02.374Z,96138
2023-04-30T02:23:02.371Z,96141
2023-04-30T02:24:02.444Z,96142
2023-04-30T02:25:02.447Z,96142
2023-04-30T02:26:02.396Z,96142
2023-04-30T02:27:02.442Z,96144
2023-04-30T02:28:02.385Z,96141
2023-04-30T02:29:02.404Z,96141
2023-04-30T02:30:02.442Z,96139
2023-04-30T02:31:02.396Z,96140
2023-04-30T02:32:02.538Z,96138
2023-04-30T02:33:02.476Z,96138
2023-04-30T02:34:02.423Z,96136
2023-04-30T02:35:02.648Z,96133
2023-04-30T02:36:02.413Z,96133
2023-04-30T02:37:02.388Z,96137
2023-04-30T02:38:02.414Z,96135
2023-04-30T02:39:02.429Z,96137
2023-04-30T02:40:02.467Z,96133
2023-04-30T02:41:02.458Z,96139
2023-04-30T02:42:02.454Z,96137
2023-04-30T02:43:02.477Z,96134
2023-04-30T02:44:02.460Z,96135
2023-04-30T02:45:02.476Z,96129
2023-04-30T02:46:02.493Z,96133
2023-04-30T02:47:02.525Z,96132
2023-04-30T02:48:02.557Z,96135
2023-04-30T02:49:02.434Z,96133
2023-04-30T02:50:02.467Z,96131
2023-04-30T02:51:02.449Z,96132
2023-04-30T02:52:02.487Z,96133
2023-04-30T02:53:02.509Z,96133
2023-04-30T02:54:02.478Z,96132
2023-04-30T02:55:02.543Z,96130
2023-04-30T02:56:02.500Z,96129
2023-04-30T02:57:02.478Z,96128
2023-04-30T02:58:02.502Z,96128
2023-04-30T02:59:02.504Z,96133
2023-04-30T03:00:02.501Z,96125
2023-04-30T03:01:02.514Z,96125
2023-04-30T03:02:02.459Z,96127
2023-04-30T03:03:02.584Z,96125
2023-04-30T03:04:02.502Z,96128
2023-04-30T03:05:02.476Z,96128
2023-04-30T03:06:02.535Z,96125
2023-04-30T03:09:02.554Z,96130
2023-04-30T03:10:02.496Z,96131
2023-04-30T03:11:02.531Z,96124
2023-04-30T03:12:02.548Z,96125
2023-04-30T03:14:02.567Z,96125
2023-04-30T03:15:02.565Z,96127
2023-04-30T03:16:02.618Z,96126
2023-04-30T03:17:02.523Z,96126
2023-04-30T03:18:02.553Z,96126
2023-04-30T03:19:02.551Z,96127
2023-04-30T03:20:02.566Z,96127
2023-04-30T03:21:02.557Z,96122
2023-04-30T03:22:02.555Z,96124
2023-04-30T03:23:02.525Z,96120
2023-04-30T03:24:02.536Z,96121
2023-04-30T03:25:02.566Z,96122
2023-04-30T03:26:02.564Z,96119
2023-04-30T03:27:02.571Z,96119
2023-04-30T03:28:02.559Z,96114
2023-04-30T03:29:02.568Z,96116
2023-04-30T03:30:02.623Z,96116
2023-04-30T03:31:02.636Z,96116
2023-04-30T03:32:02.569Z,96117
2023-04-30T03:33:02.695Z,96112
2023-04-30T03:34:02.579Z,96112
2023-04-30T03:35:02.597Z,96113
2023-04-30T03:36:02.554Z,96113
2023-04-30T03:37:02.609Z,96110
2023-04-30T03:38:02.616Z,96113
2023-04-30T03:39:02.570Z,96115
2023-04-30T03:40:02.608Z,96114
2023-04-30T03:41:02.566Z,96118
2023-04-30T03:42:02.595Z,96110
2023-04-30T03:43:02.618Z,96114
2023-04-30T03:44:02.580Z,96114
2023-04-30T03:45:02.624Z,96113
2023-04-30T03:46:02.659Z,96112
2023-04-30T03:47:02.649Z,96110
2023-04-30T03:48:02.650Z,96113
2023-04-30T03:50:02.639Z,96117
2023-04-30T03:51:02.637Z,96118
2023-04-30T03:52:02.672Z,96116
2023-04-30T03:53:02.658Z,96118
2023-04-30T03:54:02.605Z,96116
2023-04-30T03:55:02.670Z,96116
2023-04-30T03:56:02.624Z,96116
2023-04-30T03:58:02.658Z,96112
2023-04-30T03:59:02.658Z,96114
2023-04-30T04:00:02.679Z,96113
2023-04-30T04:01:02.668Z,96115
2023-04-30T04:02:02.622Z,96118
2023-04-30T04:03:02.723Z,96115
2023-04-30T04:04:02.667Z,96115
2023-04-30T04:07:02.689Z,96115
2023-04-30T04:08:02.656Z,96115
2023-04-30T04:09:02.683Z,96117
2023-04-30T04:10:02.641Z,96117
2023-04-30T04:11:02.692Z,96117
2023-04-30T04:12:02.693Z,96117
2023-04-30T04:13:02.688Z,96118
2023-04-30T04:14:02.731Z,96123
2023-04-30T04:15:02.714Z,96122
2023-04-30T04:16:02.765Z,96122
2023-04-30T04:17:02.693Z,96126
2023-04-30T04:18:02.737Z,96127
2023-04-30T04:19:02.697Z,96127
2023-04-30T04:20:02.713Z,96128
2023-04-30T04:21:02.718Z,96131
2023-04-30T04:22:02.738Z,96132
2023-04-30T04:23:02.694Z,96132
2023-04-30T04:24:02.739Z,96126
2023-04-30T04:25:02.742Z,96127
2023-04-30T04:26:02.791Z,96128
2023-04-30T04:27:02.781Z,96129
2023-04-30T04:28:02.724Z,96125
2023-04-30T04:30:02.770Z,96129
2023-04-30T04:31:02.731Z,96133
2023-04-30T04:32:02.863Z,96132
2023-04-30T04:33:02.808Z,96135
2023-04-30T04:34:02.749Z,96137
2023-04-30T04:35:02.743Z,96138
2023-04-30T04:36:02.741Z,96143
2023-04-30T04:37:02.741Z,96137
2023-04-30T04:38:02.786Z,96139
2023-04-30T04:39:02.781Z,96137
2023-04-30T04:40:02.741Z,96141
2023-04-30T04:41:02.758Z,96140
2023-04-30T04:42:02.771Z,96139
2023-04-30T04:43:02.760Z,96143
2023-04-30T04:44:02.792Z,96140
2023-04-30T04:46:02.814Z,96139
2023-04-30T04:47:02.793Z,96144
2023-04-30T04:48:02.874Z,96144
2023-04-30T04:50:02.799Z,96145
2023-04-30T04:51:02.795Z,96146
2023-04-30T04:52:02.793Z,96144
2023-04-30T04:53:02.780Z,96148
2023-04-30T04:55:02.820Z,96145
2023-04-30T04:57:02.799Z,96146
2023-04-30T04:58:02.813Z,96149
2023-04-30T04:59:02.770Z,96144
2023-04-30T05:00:02.808Z,96145
2023-04-30T05:01:02.788Z,96146
2023-04-30T05:02:02.934Z,96146
2023-04-30T05:03:02.892Z,96144
2023-04-30T05:04:02.885Z,96146
2023-04-30T05:05:02.796Z,96142
2023-04-30T05:06:02.934Z,96143
2023-04-30T05:07:02.797Z,96144
2023-04-30T05:08:02.846Z,96146
2023-04-30T05:09:02.833Z,96143
2023-04-30T05:11:02.838Z,96140
2023-04-30T05:12:02.842Z,96139
2023-04-30T05:13:02.812Z,96138
2023-04-30T05:14:02.812Z,96135
2023-04-30T05:15:02.831Z,96137
2023-04-30T05:16:02.896Z,96134
2023-04-30T05:17:02.824Z,96134
2023-04-30T05:18:03.113Z,96138
2023-04-30T05:19:02.853Z,96132
2023-04-30T05:20:02.847Z,96132
2023-04-30T05:22:02.860Z,96129
2023-04-30T05:23:02.906Z,96132
2023-04-30T05:24:02.857Z,96136
2023-04-30T05:25:02.864Z,96134
2023-04-30T05:26:02.919Z,96133
2023-04-30T05:27:02.838Z,96136
2023-04-30T05:28:02.856Z,96136
2023-04-30T05:29:02.913Z,96131
2023-04-30T05:30:02.875Z,96132
2023-04-30T05:31:02.936Z,96131
2023-04-30T05:32:03.043Z,96130
2023-04-30T05:33:02.893Z,96130
2023-04-30T05:34:02.902Z,96134
2023-04-30T05:35:02.904Z,96134
2023-04-30T05:36:02.905Z,96131
2023-04-30T05:39:02.910Z,96129
2023-04-30T05:40:02.943Z,96129
2023-04-30T05:41:02.901Z,96127
2023-04-30T05:42:02.957Z,96132
2023-04-30T05:43:02.911Z,96131
2023-04-30T05:44:02.958Z,96132
2023-04-30T05:45:02.996Z,96135
2023-04-30T05:48:02.929Z,96132
2023-04-30T05:49:02.963Z,96135
2023-04-30T05:50:02.948Z,96131
2023-04-30T05:51:02.940Z,96131
2023-04-30T05:52:02.939Z,96135
2023-04-30T05:53:02.936Z,96140
2023-04-30T05:54:02.899Z,96140
2023-04-30T05:55:02.948Z,96139
2023-04-30T05:56:03.000Z,96138
2023-04-30T05:57:02.954Z,96140
2023-04-30T05:58:02.972Z,96139
2023-04-30T05:59:02.923Z,96141
2023-04-30T06:00:02.989Z,96145
2023-04-30T06:03:03.063Z,96143
2023-04-30T06:04:02.929Z,96141
2023-04-30T06:05:03.038Z,96142
2023-04-30T06:06:03.004Z,96142
2023-04-30T06:07:02.938Z,96142
2023-04-30T06:08:02.958Z,96140
2023-04-30T06:09:02.947Z,96140
2023-04-30T06:10:02.995Z,96139
2023-04-30T06:11:02.985Z,96141
2023-04-30T06:12:02.954Z,96135
2023-04-30T06:13:03.028Z,96135
2023-04-30T06:14:02.990Z,96137
2023-04-30T06:15:02.961Z,96138
2023-04-30T06:17:03.008Z,96137
2023-04-30T06:18:03.132Z,96136
2023-04-30T06:19:03.037Z,96133
2023-04-30T06:21:02.991Z,96134
2023-04-30T06:22:03.009Z,96131
2023-04-30T06:23:02.997Z,96135
2023-04-30T06:24:02.974Z,96135
2023-04-30T06:25:03.028Z,96134
2023-04-30T06:26:03.031Z,96127
2023-04-30T06:27:03.019Z,96127
2023-04-30T06:28:03.011Z,96134
2023-04-30T06:29:03.004Z,96133
2023-04-30T06:30:03.047Z,96130
2023-04-30T06:31:03.120Z,96133
2023-04-30T06:32:03.013Z,96141
2023-04-30T06:33:03.061Z,96135
2023-04-30T06:34:03.007Z,96133
2023-04-30T06:35:03.080Z,96136
2023-04-30T06:36:03.062Z,96135
2023-04-30T06:37:03.044Z,96135
2023-04-30T06:38:03.040Z,96140
2023-04-30T06:39:03.050Z,96142
2023-04-30T06:40:03.078Z,96145
2023-04-30T06:41:03.044Z,96145
2023-04-30T06:43:03.094Z,96144
2023-04-30T06:44:03.075Z,96141
2023-04-30T06:45:03.090Z,96142
2023-04-30T06:47:03.090Z,96137
2023-04-30T06:48:03.050Z,96137
2023-04-30T06:49:03.045Z,96143
2023-04-30T06:50:03.072Z,96143
2023-04-30T06:51:03.096Z,96140
2023-04-30T06:52:03.146Z,96142
2023-04-30T06:55:03.101Z,96142
2023-04-30T06:56:03.070Z,96142
2023-04-30T06:57:03.059Z,96139
2023-04-30T07:00:03.103Z,96139
2023-04-30T07:01:03.132Z,96144
2023-04-30T07:02:03.111Z,96140
2023-04-30T07:03:03.164Z,96139
2023-04-30T07:04:03.142Z,96144
2023-04-30T07:05:03.155Z,96145
2023-04-30T07:06:03.174Z,96148
2023-04-30T07:07:03.098Z,96149
2023-04-30T07:08:03.115Z,96146
2023-04-30T07:09:03.128Z,96152
2023-04-30T07:10:03.148Z,96146
2023-04-30T07:11:03.137Z,96147
2023-04-30T07:12:03.126Z,96147
2023-04-30T07:13:03.161Z,96144
2023-04-30T07:14:03.153Z,96141
2023-04-30T07:15:03.149Z,96145
2023-04-30T07:16:03.179Z,96138
2023-04-30T07:17:03.122Z,96139
2023-04-30T07:18:03.184Z,96138
2023-04-30T07:19:03.181Z,96138
2023-04-30T07:20:03.127Z,96138
2023-04-30T07:21:03.185Z,96135
2023-04-30T07:22:03.146Z,96138
2023-04-30T07:23:03.183Z,96133
2023-04-30T07:24:03.182Z,96134
2023-04-30T07:25:03.137Z,96134
2023-04-30T07:26:03.188Z,96131
2023-04-30T07:27:03.184Z,96131
2023-04-30T07:28:03.173Z,96129
2023-04-30T07:29:03.202Z,96133
2023-04-30T07:30:03.141Z,96130
2023-04-30T07:31:03.214Z,96131
2023-04-30T07:32:03.288Z,96128
2023-04-30T07:34:03.210Z,96128
2023-04-30T07:35:03.188Z,96128
2023-04-30T07:37:03.236Z,96128
2023-04-30T07:38:03.165Z,96134
2023-04-30T07:39:03.232Z,96130
2023-04-30T07:40:03.223Z,96133
2023-04-30T07:41:03.221Z,96137
2023-04-30T07:43:03.187Z,96135
2023-04-30T07:44:03.229Z,96135
2023-04-30T07:45:03.220Z,96137
2023-04-30T07:46:03.226Z,96136
2023-04-30T07:47:03.240Z,96136
2023-04-30T07:48:03.329Z,96133
2023-04-30T07:49:03.223Z,96130
2023-04-30T07:50:03.227Z,96130
2023-04-30T07:51:03.257Z,96139
2023-04-30T07:52:03.234Z,96134
2023-04-30T07:53:03.277Z,96134
2023-04-30T07:54:03.238Z,96129
2023-04-30T07:55:03.252Z,96128
2023-04-30T07:56:03.235Z,96128
2023-04-30T07:57:03.281Z,96135
2023-04-30T07:58:03.254Z,96131
2023-04-30T07:59:03.259Z,96131
2023-04-30T08:00:03.288Z,96125
2023-04-30T08:01:03.264Z,96125
2023-04-30T08:02:03.278Z,96127
2023-04-30T08:03:03.326Z,96139
2023-04-30T08:04:03.352Z,96132
2023-04-30T08:05:03.263Z,96133
2023-04-30T08:06:03.282Z,96134
2023-04-30T08:07:03.310Z,96132
2023-04-30T08:08:03.274Z,96134
2023-04-30T08:09:03.249Z,96134
2023-04-30T08:10:03.282Z,96129
2023-04-30T08:11:03.304Z,96131
2023-04-30T08:12:03.281Z,96129
2023-04-30T08:13:03.320Z,96134
2023-04-30T08:14:03.286Z,96132
2023-04-30T08:15:03.301Z,96130
2023-04-30T08:16:03.359Z,96128
2023-04-30T08:17:03.390Z,96129
2023-04-30T08:18:03.374Z,96130
2023-04-30T08:19:03.314Z,96130
2023-04-30T08:20:03.309Z,96130
2023-04-30T08:21:03.280Z,96130
2023-04-30T08:22:03.284Z,96130
2023-04-30T08:23:03.323Z,96123
2023-04-30T08:24:03.348Z,96130
2023-04-30T08:25:03.330Z,96127
2023-04-30T08:26:03.340Z,96124
2023-04-30T08:27:03.302Z,96124
2023-04-30T08:28:03.317Z,96126
2023-04-30T08:29:03.354Z,96123
2023-04-30T08:30:03.325Z,96125
2023-04-30T08:31:03.361Z,96130
2023-04-30T08:33:03.331Z,96129
2023-04-30T08:34:03.331Z,96128
2023-04-30T08:35:03.343Z,96130
2023-04-30T08:36:03.382Z,96128
2023-04-30T08:37:03.371Z,96129
2023-04-30T08:38:03.331Z,96127
2023-04-30T08:39:03.391Z,96130
2023-04-30T08:40:03.342Z,96130
2023-04-30T08:41:03.335Z,96130
2023-04-30T08:42:03.384Z,96131
2023-04-30T08:43:03.337Z,96125
2023-04-30T08:44:03.498Z,96125
2023-04-30T08:45:03.442Z,96143
2023-04-30T08:46:03.352Z,96132
2023-04-30T08:47:03.370Z,96131
2023-04-30T08:48:03.430Z,96131
2023-04-30T08:49:03.395Z,96135
2023-04-30T08:50:03.425Z,96130
2023-04-30T08:51:03.355Z,96130
2023-04-30T08:52:03.413Z,96136
2023-04-30T08:53:03.460Z,96137
2023-04-30T08:54:03.395Z,96138
2023-04-30T08:55:03.408Z,96140
2023-04-30T08:56:03.359Z,96135
2023-04-30T08:57:03.376Z,96139
2023-04-30T08:58:03.413Z,96134
2023-04-30T08:59:03.411Z,96134
2023-04-30T09:00:03.397Z,96132
2023-04-30T09:02:03.449Z,96140
2023-04-30T09:03:03.587Z,96141
2023-04-30T09:04:03.625Z,96141
2023-04-30T09:05:03.403Z,96141
2023-04-30T09:06:03.460Z,96140
2023-04-30T09:07:04.518Z,96140
2023-04-30T09:08:04.333Z,96140
2023-04-30T09:09:03.396Z,96140
2023-04-30T09:10:03.467Z,96140
2023-04-30T09:11:03.502Z,96141
2023-04-30T09:12:03.434Z,96140
2023-04-30T09:13:03.437Z,96139
2023-04-30T09:14:03.417Z,96136
2023-04-30T09:15:03.504Z,96137
2023-04-30T09:16:03.507Z,96135
2023-04-30T09:17:03.437Z,96135
2023-04-30T09:18:03.536Z,96127
2023-04-30T09:19:03.493Z,96128
2023-04-30T09:20:03.462Z,96134
2023-04-30T09:21:03.466Z,96129
2023-04-30T09:22:03.444Z,96127
2023-04-30T09:23:03.487Z,96123
2023-04-30T09:24:03.505Z,96125
2023-04-30T09:25:03.476Z,96125
2023-04-30T09:26:03.520Z,96124
2023-04-30T09:27:03.472Z,96125
2023-04-30T09:28:03.474Z,96122
2023-04-30T09:29:03.494Z,96122
2023-04-30T09:30:03.458Z,96122
2023-04-30T09:31:03.560Z,96130
2023-04-30T09:32:03.745Z,96126
2023-04-30T09:33:03.571Z,96126
2023-04-30T09:34:03.527Z,96126
2023-04-30T09:35:03.496Z,96126
2023-04-30T09:36:03.523Z,96128
2023-04-30T09:37:03.543Z,96128
2023-04-30T09:38:03.543Z,96123
2023-04-30T09:39:03.508Z,96123
2023-04-30T09:40:03.498Z,96120
2023-04-30T09:41:03.502Z,96118
2023-04-30T09:42:03.516Z,96120
2023-04-30T09:43:03.510Z,96115
2023-04-30T09:44:03.528Z,96109
2023-04-30T09:45:03.515Z,96113
2023-04-30T09:46:03.564Z,96113
2023-04-30T09:47:03.700Z,96115
2023-04-30T09:48:16.410Z,96109
2023-04-30T09:49:03.506Z,96105
2023-04-30T09:51:03.501Z,96100
2023-04-30T09:52:03.542Z,96103
2023-04-30T09:53:03.525Z,96103
2023-04-30T09:54:03.577Z,96100
2023-04-30T09:56:03.540Z,96098
2023-04-30T09:57:03.553Z,96101
2023-04-30T09:58:03.560Z,96100
2023-04-30T09:59:03.588Z,96100
2023-04-30T10:00:03.586Z,96097
2023-04-30T10:01:03.650Z,96093
2023-04-30T10:02:03.581Z,96095
2023-04-30T10:03:03.608Z,96090
2023-04-30T10:04:03.591Z,96090
2023-04-30T10:05:03.538Z,96092
2023-04-30T10:06:03.654Z,96086
2023-04-30T10:07:03.616Z,96088
2023-04-30T10:08:03.611Z,96089
2023-04-30T10:09:03.554Z,96090
2023-04-30T10:11:03.635Z,96087
2023-04-30T10:12:03.562Z,96087
2023-04-30T10:13:04.533Z,96087
2023-04-30T10:14:03.607Z,96083
2023-04-30T10:15:03.626Z,96082
2023-04-30T10:16:03.658Z,96090
2023-04-30T10:17:03.613Z,96089
2023-04-30T10:18:03.683Z,96093
2023-04-30T10:19:03.560Z,96093
2023-04-30T10:20:03.618Z,96086
2023-04-30T10:21:03.627Z,96085
2023-04-30T10:22:03.568Z,96085
2023-04-30T10:23:03.598Z,96078
2023-04-30T10:24:03.619Z,96084
2023-04-30T10:25:03.630Z,96076
2023-04-30T10:26:03.693Z,96071
2023-04-30T10:27:03.634Z,96082
2023-04-30T10:28:04.867Z,96069
2023-04-30T10:29:03.602Z,96070
2023-04-30T10:30:03.645Z,96066
2023-04-30T10:31:03.766Z,96072
2023-04-30T10:32:03.715Z,96072
2023-04-30T10:33:03.745Z,96074
2023-04-30T10:34:03.645Z,96072
2023-04-30T10:35:03.618Z,96072
2023-04-30T10:36:03.653Z,96074
2023-04-30T10:37:03.692Z,96070
2023-04-30T10:38:03.685Z,96070
2023-04-30T10:39:03.683Z,96070
2023-04-30T10:40:03.655Z,96070
2023-04-30T10:41:03.701Z,96067
2023-04-30T10:42:03.692Z,96068
2023-04-30T10:43:03.657Z,96068
2023-04-30T10:44:03.662Z,96061
2023-04-30T10:45:03.776Z,96070
2023-04-30T10:47:03.707Z,96057
2023-04-30T10:48:03.719Z,96057
2023-04-30T10:49:03.716Z,96064
2023-04-30T10:50:03.720Z,96058
2023-04-30T10:51:03.731Z,96055
2023-04-30T10:52:03.694Z,96049
2023-04-30T10:53:03.701Z,96049
2023-04-30T10:55:03.697Z,96056
2023-04-30T10:56:03.674Z,96050
2023-04-30T10:57:03.712Z,96050
2023-04-30T10:58:03.750Z,96048
2023-04-30T10:59:03.732Z,96042
2023-04-30T11:00:03.723Z,96046
2023-04-30T11:01:03.785Z,96046
2023-04-30T11:02:03.777Z,96030
2023-04-30T11:03:03.904Z,96031
2023-04-30T11:04:03.757Z,96045
2023-04-30T11:05:03.787Z,96037
2023-04-30T11:06:03.741Z,96032
2023-04-30T11:07:03.794Z,96034
2023-04-30T11:08:03.759Z,96029
2023-04-30T11:09:03.712Z,96029
2023-04-30T11:10:03.744Z,96031
2023-04-30T11:11:03.728Z,96028
2023-04-30T11:12:03.788Z,96028
2023-04-30T11:13:03.747Z,96028
2023-04-30T11:14:03.728Z,96029
2023-04-30T11:15:03.755Z,96031
2023-04-30T11:16:03.770Z,96033
2023-04-30T11:17:03.731Z,96037
2023-04-30T11:18:03.831Z,96036
2023-04-30T11:19:03.744Z,96037
2023-04-30T11:20:03.788Z,96034
2023-04-30T11:21:03.822Z,96038
2023-04-30T11:22:03.771Z,96018
2023-04-30T11:23:03.755Z,96036
2023-04-30T11:24:03.802Z,96038
2023-04-30T11:25:03.789Z,96033
2023-04-30T11:26:03.833Z,96039
2023-04-30T11:27:03.758Z,96039
2023-04-30T11:28:03.780Z,96041
2023-04-30T11:29:03.850Z,96042
2023-04-30T11:30:03.825Z,96044
2023-04-30T11:31:03.820Z,96044
2023-04-30T11:33:03.819Z,96046
2023-04-30T11:34:03.803Z,96052
2023-04-30T11:35:03.784Z,96052
2023-04-30T11:36:03.839Z,96046
2023-04-30T11:37:03.780Z,96046
2023-04-30T11:38:03.816Z,96044
2023-04-30T11:39:03.811Z,96048
2023-04-30T11:40:03.830Z,96046
2023-04-30T11:41:03.841Z,96043
2023-04-30T11:42:03.848Z,96043
2023-04-30T11:43:03.829Z,96041
2023-04-30T11:44:03.834Z,96036
2023-04-30T11:45:03.819Z,96034
2023-04-30T11:46:03.893Z,96033
2023-04-30T11:47:03.846Z,96032
2023-04-30T11:48:03.845Z,96031
2023-04-30T11:50:03.819Z,96030
2023-04-30T11:51:03.810Z,96030
2023-04-30T11:52:03.824Z,96031
2023-04-30T11:53:03.861Z,96021
2023-04-30T11:54:03.857Z,96023
2023-04-30T11:55:03.924Z,96024
2023-04-30T11:56:03.905Z,96031
2023-04-30T11:57:03.949Z,96028
2023-04-30T11:58:03.857Z,96028
2023-04-30T11:59:03.881Z,96027
2023-04-30T12:00:03.875Z,96027
2023-04-30T12:01:03.890Z,96032
2023-04-30T12:02:03.939Z,96027
2023-04-30T12:03:04.250Z,96031
2023-04-30T12:04:03.999Z,96027
2023-04-30T12:05:03.864Z,96027
2023-04-30T12:06:03.877Z,96024
2023-04-30T12:07:03.920Z,96022
2023-04-30T12:08:03.929Z,96023
2023-04-30T12:09:03.931Z,96020
2023-04-30T12:10:03.923Z,96020
2023-04-30T12:11:03.857Z,96020
2023-04-30T12:12:03.929Z,96020
2023-04-30T12:14:03.959Z,96018
2023-04-30T12:15:03.972Z,96017
2023-04-30T12:16:03.993Z,96021
2023-04-30T12:17:04.139Z,96021
2023-04-30T12:18:03.980Z,96018
2023-04-30T12:19:03.968Z,96020
2023-04-30T12:20:03.924Z,96018
2023-04-30T12:21:03.954Z,96018
2023-04-30T12:22:03.946Z,96017
2023-04-30T12:23:03.980Z,96015
2023-04-30T12:24:03.964Z,96018
2023-04-30T12:25:03.937Z,96019
2023-04-30T12:26:03.954Z,96015
2023-04-30T12:27:03.951Z,96013
2023-04-30T12:28:03.941Z,96020
2023-04-30T12:29:03.935Z,96018
2023-04-30T12:30:03.981Z,96022
2023-04-30T12:31:03.957Z,96020
2023-04-30T12:32:03.985Z,96013
2023-04-30T12:33:04.021Z,96009
2023-04-30T12:34:03.998Z,96018
2023-04-30T12:35:03.963Z,96019
2023-04-30T12:36:03.966Z,96017
2023-04-30T12:37:03.976Z,96015
2023-04-30T12:38:03.970Z,96013
2023-04-30T12:39:03.973Z,96014
2023-04-30T12:40:03.989Z,96015
2023-04-30T12:41:03.944Z,96019
2023-04-30T12:43:03.957Z,96016
2023-04-30T12:44:04.010Z,96022
2023-04-30T12:45:03.989Z,96023
2023-04-30T12:46:04.031Z,96015
2023-04-30T12:47:03.994Z,96017
2023-04-30T12:48:04.067Z,96017
2023-04-30T12:50:03.988Z,96017
2023-04-30T12:51:04.028Z,96013
2023-04-30T12:52:04.071Z,96021
2023-04-30T12:53:04.000Z,96023
2023-04-30T12:54:04.008Z,96012
2023-04-30T12:55:04.006Z,96015
2023-04-30T12:56:04.074Z,96012
2023-04-30T12:57:04.015Z,96015
2023-04-30T12:58:04.026Z,96006
2023-04-30T12:59:04.037Z,96012
2023-04-30T13:00:04.009Z,96012
2023-04-30T13:01:04.072Z,96014
2023-04-30T13:02:04.064Z,96011
2023-04-30T13:03:04.067Z,96006
2023-04-30T13:04:04.176Z,96009
2023-04-30T13:05:04.043Z,96008
2023-04-30T13:06:04.172Z,96008
2023-04-30T13:07:04.049Z,96008
2023-04-30T13:08:04.038Z,96008
2023-04-30T13:09:04.073Z,96007
2023-04-30T13:10:04.027Z,96007
2023-04-30T13:11:04.059Z,96011
2023-04-30T13:12:04.062Z,96007
2023-04-30T13:13:04.057Z,96012
2023-04-30T13:14:04.099Z,96013
2023-04-30T13:15:04.074Z,96012
2023-04-30T13:16:04.081Z,96013
2023-04-30T13:17:04.064Z,96012
2023-04-30T13:18:04.126Z,96009
2023-04-30T13:19:04.080Z,96010
2023-04-30T13:20:04.096Z,96006
2023-04-30T13:21:04.088Z,96006
2023-04-30T13:22:04.059Z,96004
2023-04-30T13:23:04.068Z,96009
2023-04-30T13:24:04.096Z,96009
2023-04-30T13:25:04.099Z,96006
2023-04-30T13:26:04.095Z,96006
2023-04-30T13:27:04.144Z,96003
2023-04-30T13:29:04.098Z,96000
2023-04-30T13:30:04.125Z,95999
2023-04-30T13:31:04.158Z,95996
2023-04-30T13:32:04.068Z,95996
2023-04-30T13:33:04.198Z,95994
2023-04-30T13:34:04.084Z,95991
2023-04-30T13:35:04.091Z,95995
2023-04-30T13:36:04.149Z,95995
2023-04-30T13:37:04.109Z,95991
2023-04-30T13:38:04.144Z,95989
2023-04-30T13:39:04.121Z,95992
2023-04-30T13:40:04.162Z,95990
2023-04-30T13:41:04.134Z,96000
2023-04-30T13:42:04.116Z,95999
2023-04-30T13:43:04.135Z,95997
2023-04-30T13:44:04.136Z,95995
2023-04-30T13:45:04.142Z,95996
2023-04-30T13:46:04.300Z,95997
2023-04-30T13:47:04.291Z,95993
2023-04-30T13:48:04.262Z,96000
2023-04-30T13:50:04.185Z,95994
2023-04-30T13:51:04.154Z,95992
2023-04-30T13:52:04.185Z,95991
2023-04-30T13:53:04.188Z,95990
2023-04-30T13:54:04.158Z,95992
2023-04-30T13:55:04.130Z,95990